sensor_id;sensor_type;location;lat;lon;timestamp;P1;durP1;ratioP1;P2;durP2;ratioP2
17784;SDS011;9016;53.582;10.062;2023-06-14T00:00:03;0.30;;;0.30;;
17784;SDS011;9016;53.582;10.062;2023-06-14T00:02:34;0.30;;;0.30;;
17784;SDS011;9016;53.582;10.062;2023-06-14T00:05:03;0.30;;;0.30;;
17784;SDS011;9016;53.582;10.062;2023-06-14T00:07:35;0.20;;;0.20;;
17784;SDS011;9016;53.582;10.062;2023-06-14T00:10:05;0.30;;;0.30;;
17784;SDS011;9016;53.582;10.062;2023-06-14T00:12:34;0.23;;;0.23;;
17784;SDS011;9016;53.582;10.062;2023-06-14T00:15:02;0.30;;;0.30;;
17784;SDS011;9016;53.582;10.062;2023-06-14T00:17:31;0.30;;;0.30;;
17784;SDS011;9016;53.582;10.062;2023-06-14T00:20:01;0.30;;;0.30;;
17784;SDS011;9016;53.582;10.062;2023-06-14T00:22:34;0.30;;;0.30;;
17784;SDS011;9016;53.582;10.062;2023-06-14T00:25:03;0.30;;;0.30;;
17784;SDS011;9016;53.582;10.062;2023-06-14T00:27:49;0.30;;;0.30;;
17784;SDS011;9016;53.582;10.062;2023-06-14T00:30:17;0.30;;;0.30;;
17784;SDS011;9016;53.582;10.062;2023-06-14T00:32:45;0.30;;;0.30;;
17784;SDS011;9016;53.582;10.062;2023-06-14T00:35:16;0.30;;;0.30;;
17784;SDS011;9016;53.582;10.062;2023-06-14T00:37:44;0.30;;;0.30;;
17784;SDS011;9016;53.582;10.062;2023-06-14T00:40:12;0.30;;;0.30;;
17784;SDS011;9016;53.582;10.062;2023-06-14T00:42:40;0.30;;;0.30;;
17784;SDS011;9016;53.582;10.062;2023-06-14T00:45:09;0.30;;;0.30;;
17784;SDS011;9016;53.582;10.062;2023-06-14T00:47:37;0.30;;;0.30;;
17784;SDS011;9016;53.582;10.062;2023-06-14T00:50:08;0.30;;;0.30;;
17784;SDS011;9016;53.582;10.062;2023-06-14T00:52:39;0.30;;;0.30;;
17784;SDS011;9016;53.582;10.062;2023-06-14T00:55:07;0.30;;;0.30;;
17784;SDS011;9016;53.582;10.062;2023-06-14T00:57:36;0.30;;;0.30;;
17784;SDS011;9016;53.582;10.062;2023-06-14T01:00:06;0.30;;;0.30;;
17784;SDS011;9016;53.582;10.062;2023-06-14T01:02:36;0.30;;;0.30;;
17784;SDS011;9016;53.582;10.062;2023-06-14T01:05:05;0.30;;;0.30;;
17784;SDS011;9016;53.582;10.062;2023-06-14T01:07:41;0.30;;;0.30;;
17784;SDS011;9016;53.582;10.062;2023-06-14T01:10:28;0.30;;;0.30;;
17784;SDS011;9016;53.582;10.062;2023-06-14T01:13:05;0.30;;;0.30;;
17784;SDS011;9016;53.582;10.062;2023-06-14T01:15:38;0.30;;;0.30;;
17784;SDS011;9016;53.582;10.062;2023-06-14T01:18:08;0.30;;;0.30;;
17784;SDS011;9016;53.582;10.062;2023-06-14T01:20:43;0.30;;;0.30;;
17784;SDS011;9016;53.582;10.062;2023-06-14T01:23:17;0.30;;;0.30;;
17784;SDS011;9016;53.582;10.062;2023-06-14T01:25:46;0.20;;;0.20;;
17784;SDS011;9016;53.582;10.062;2023-06-14T01:28:20;0.20;;;0.20;;
17784;SDS011;9016;53.582;10.062;2023-06-14T01:30:50;0.30;;;0.30;;
17784;SDS011;9016;53.582;10.062;2023-06-14T01:33:20;0.30;;;0.30;;
17784;SDS011;9016;53.582;10.062;2023-06-14T01:35:49;0.30;;;0.30;;
17784;SDS011;9016;53.582;10.062;2023-06-14T01:38:21;0.30;;;0.30;;
17784;SDS011;9016;53.582;10.062;2023-06-14T01:40:52;0.30;;;0.30;;
17784;SDS011;9016;53.582;10.062;2023-06-14T01:43:22;0.30;;;0.30;;
17784;SDS011;9016;53.582;10.062;2023-06-14T01:45:52;0.30;;;0.30;;
17784;SDS011;9016;53.582;10.062;2023-06-14T01:48:22;0.30;;;0.30;;
17784;SDS011;9016;53.582;10.062;2023-06-14T01:50:52;0.30;;;0.30;;
17784;SDS011;9016;53.582;10.062;2023-06-14T01:53:21;0.27;;;0.27;;
17784;SDS011;9016;53.582;10.062;2023-06-14T01:55:50;0.30;;;0.30;;
17784;SDS011;9016;53.582;10.062;2023-06-14T01:58:20;0.30;;;0.30;;
17784;SDS011;9016;53.582;10.062;2023-06-14T02:00:49;0.30;;;0.30;;
17784;SDS011;9016;53.582;10.062;2023-06-14T02:03:17;0.30;;;0.30;;
17784;SDS011;9016;53.582;10.062;2023-06-14T02:05:45;0.30;;;0.30;;
17784;SDS011;9016;53.582;10.062;2023-06-14T02:08:14;0.30;;;0.30;;
17784;SDS011;9016;53.582;10.062;2023-06-14T02:10:43;0.30;;;0.30;;
17784;SDS011;9016;53.582;10.062;2023-06-14T02:13:11;0.30;;;0.30;;
17784;SDS011;9016;53.582;10.062;2023-06-14T02:15:39;0.20;;;0.20;;
17784;SDS011;9016;53.582;10.062;2023-06-14T02:18:12;0.30;;;0.30;;
17784;SDS011;9016;53.582;10.062;2023-06-14T02:20:40;0.30;;;0.30;;
17784;SDS011;9016;53.582;10.062;2023-06-14T02:23:08;0.30;;;0.30;;
17784;SDS011;9016;53.582;10.062;2023-06-14T02:25:36;0.30;;;0.30;;
17784;SDS011;9016;53.582;10.062;2023-06-14T02:28:07;0.30;;;0.30;;
17784;SDS011;9016;53.582;10.062;2023-06-14T02:30:35;0.30;;;0.30;;
17784;SDS011;9016;53.582;10.062;2023-06-14T02:33:03;0.30;;;0.30;;
17784;SDS011;9016;53.582;10.062;2023-06-14T02:35:31;0.20;;;0.20;;
17784;SDS011;9016;53.582;10.062;2023-06-14T02:37:59;0.30;;;0.30;;
17784;SDS011;9016;53.582;10.062;2023-06-14T02:40:27;0.30;;;0.30;;
17784;SDS011;9016;53.582;10.062;2023-06-14T02:42:55;0.30;;;0.30;;
17784;SDS011;9016;53.582;10.062;2023-06-14T02:45:24;0.30;;;0.30;;
17784;SDS011;9016;53.582;10.062;2023-06-14T02:47:52;0.30;;;0.30;;
17784;SDS011;9016;53.582;10.062;2023-06-14T02:50:22;0.30;;;0.30;;
17784;SDS011;9016;53.582;10.062;2023-06-14T02:52:51;0.30;;;0.30;;
17784;SDS011;9016;53.582;10.062;2023-06-14T02:55:22;0.40;;;0.40;;
17784;SDS011;9016;53.582;10.062;2023-06-14T02:57:54;0.30;;;0.30;;
17784;SDS011;9016;53.582;10.062;2023-06-14T03:00:23;0.30;;;0.30;;
17784;SDS011;9016;53.582;10.062;2023-06-14T03:02:51;0.30;;;0.30;;
17784;SDS011;9016;53.582;10.062;2023-06-14T03:05:21;0.30;;;0.30;;
17784;SDS011;9016;53.582;10.062;2023-06-14T03:07:50;0.30;;;0.30;;
17784;SDS011;9016;53.582;10.062;2023-06-14T03:10:20;0.20;;;0.20;;
17784;SDS011;9016;53.582;10.062;2023-06-14T03:12:48;0.30;;;0.30;;
17784;SDS011;9016;53.582;10.062;2023-06-14T03:15:18;0.30;;;0.30;;
17784;SDS011;9016;53.582;10.062;2023-06-14T03:17:47;0.30;;;0.30;;
17784;SDS011;9016;53.582;10.062;2023-06-14T03:20:15;0.20;;;0.20;;
17784;SDS011;9016;53.582;10.062;2023-06-14T03:22:44;0.30;;;0.30;;
17784;SDS011;9016;53.582;10.062;2023-06-14T03:25:14;0.30;;;0.30;;
17784;SDS011;9016;53.582;10.062;2023-06-14T03:27:45;0.30;;;0.30;;
17784;SDS011;9016;53.582;10.062;2023-06-14T03:30:13;0.30;;;0.30;;
17784;SDS011;9016;53.582;10.062;2023-06-14T03:32:41;0.30;;;0.30;;
17784;SDS011;9016;53.582;10.062;2023-06-14T03:35:11;0.30;;;0.30;;
17784;SDS011;9016;53.582;10.062;2023-06-14T03:37:43;0.30;;;0.30;;
17784;SDS011;9016;53.582;10.062;2023-06-14T03:40:12;0.30;;;0.30;;
17784;SDS011;9016;53.582;10.062;2023-06-14T03:42:41;0.30;;;0.30;;
17784;SDS011;9016;53.582;10.062;2023-06-14T03:45:09;0.30;;;0.30;;
17784;SDS011;9016;53.582;10.062;2023-06-14T03:47:39;0.20;;;0.20;;
17784;SDS011;9016;53.582;10.062;2023-06-14T03:50:08;0.20;;;0.20;;
17784;SDS011;9016;53.582;10.062;2023-06-14T03:52:38;0.30;;;0.30;;
17784;SDS011;9016;53.582;10.062;2023-06-14T03:55:09;0.30;;;0.30;;
17784;SDS011;9016;53.582;10.062;2023-06-14T03:57:42;0.30;;;0.30;;
17784;SDS011;9016;53.582;10.062;2023-06-14T04:00:10;0.30;;;0.30;;
17784;SDS011;9016;53.582;10.062;2023-06-14T04:02:39;0.23;;;0.23;;
17784;SDS011;9016;53.582;10.062;2023-06-14T04:05:07;0.30;;;0.30;;
17784;SDS011;9016;53.582;10.062;2023-06-14T04:07:35;0.30;;;0.30;;
17784;SDS011;9016;53.582;10.062;2023-06-14T04:10:08;0.30;;;0.30;;
17784;SDS011;9016;53.582;10.062;2023-06-14T04:12:37;0.30;;;0.30;;
17784;SDS011;9016;53.582;10.062;2023-06-14T04:15:09;0.30;;;0.30;;
17784;SDS011;9016;53.582;10.062;2023-06-14T04:17:41;0.30;;;0.30;;
17784;SDS011;9016;53.582;10.062;2023-06-14T04:20:09;0.30;;;0.30;;
17784;SDS011;9016;53.582;10.062;2023-06-14T04:22:38;0.30;;;0.30;;
17784;SDS011;9016;53.582;10.062;2023-06-14T04:25:09;0.30;;;0.30;;
17784;SDS011;9016;53.582;10.062;2023-06-14T04:27:38;0.27;;;0.27;;
17784;SDS011;9016;53.582;10.062;2023-06-14T04:30:08;0.30;;;0.30;;
17784;SDS011;9016;53.582;10.062;2023-06-14T04:32:37;0.30;;;0.30;;
17784;SDS011;9016;53.582;10.062;2023-06-14T04:35:07;0.20;;;0.20;;
17784;SDS011;9016;53.582;10.062;2023-06-14T04:37:36;0.30;;;0.30;;
17784;SDS011;9016;53.582;10.062;2023-06-14T04:40:11;0.30;;;0.30;;
17784;SDS011;9016;53.582;10.062;2023-06-14T04:42:39;0.30;;;0.30;;
17784;SDS011;9016;53.582;10.062;2023-06-14T04:45:11;0.30;;;0.30;;
17784;SDS011;9016;53.582;10.062;2023-06-14T04:47:40;0.30;;;0.30;;
17784;SDS011;9016;53.582;10.062;2023-06-14T04:50:10;0.30;;;0.30;;
17784;SDS011;9016;53.582;10.062;2023-06-14T04:52:39;0.30;;;0.30;;
17784;SDS011;9016;53.582;10.062;2023-06-14T04:55:08;0.30;;;0.30;;
17784;SDS011;9016;53.582;10.062;2023-06-14T04:57:38;0.30;;;0.30;;
17784;SDS011;9016;53.582;10.062;2023-06-14T05:00:07;0.30;;;0.30;;
17784;SDS011;9016;53.582;10.062;2023-06-14T05:02:38;0.30;;;0.30;;
17784;SDS011;9016;53.582;10.062;2023-06-14T05:05:07;0.30;;;0.30;;
17784;SDS011;9016;53.582;10.062;2023-06-14T05:07:35;0.30;;;0.30;;
17784;SDS011;9016;53.582;10.062;2023-06-14T05:10:08;0.30;;;0.30;;
17784;SDS011;9016;53.582;10.062;2023-06-14T05:12:37;0.30;;;0.30;;
17784;SDS011;9016;53.582;10.062;2023-06-14T05:15:09;0.30;;;0.30;;
17784;SDS011;9016;53.582;10.062;2023-06-14T05:17:37;0.20;;;0.20;;
17784;SDS011;9016;53.582;10.062;2023-06-14T05:20:10;0.30;;;0.30;;
17784;SDS011;9016;53.582;10.062;2023-06-14T05:22:39;0.30;;;0.30;;
17784;SDS011;9016;53.582;10.062;2023-06-14T05:25:09;0.30;;;0.30;;
17784;SDS011;9016;53.582;10.062;2023-06-14T05:27:39;0.30;;;0.30;;
17784;SDS011;9016;53.582;10.062;2023-06-14T05:30:10;0.30;;;0.30;;
17784;SDS011;9016;53.582;10.062;2023-06-14T05:32:39;0.30;;;0.30;;
17784;SDS011;9016;53.582;10.062;2023-06-14T05:35:08;0.30;;;0.30;;
17784;SDS011;9016;53.582;10.062;2023-06-14T05:37:37;0.30;;;0.30;;
17784;SDS011;9016;53.582;10.062;2023-06-14T05:40:05;0.30;;;0.30;;
17784;SDS011;9016;53.582;10.062;2023-06-14T05:42:35;0.20;;;0.20;;
17784;SDS011;9016;53.582;10.062;2023-06-14T05:45:05;0.30;;;0.30;;
17784;SDS011;9016;53.582;10.062;2023-06-14T05:47:34;0.30;;;0.30;;
17784;SDS011;9016;53.582;10.062;2023-06-14T05:50:02;0.30;;;0.30;;
17784;SDS011;9016;53.582;10.062;2023-06-14T05:52:30;0.33;;;0.33;;
17784;SDS011;9016;53.582;10.062;2023-06-14T05:54:58;0.30;;;0.30;;
17784;SDS011;9016;53.582;10.062;2023-06-14T05:57:27;0.30;;;0.30;;
17784;SDS011;9016;53.582;10.062;2023-06-14T05:59:55;0.30;;;0.30;;
17784;SDS011;9016;53.582;10.062;2023-06-14T06:02:24;0.30;;;0.30;;
17784;SDS011;9016;53.582;10.062;2023-06-14T06:04:52;0.30;;;0.30;;
17784;SDS011;9016;53.582;10.062;2023-06-14T06:07:20;0.30;;;0.30;;
17784;SDS011;9016;53.582;10.062;2023-06-14T06:09:48;0.30;;;0.30;;
17784;SDS011;9016;53.582;10.062;2023-06-14T06:12:17;0.30;;;0.30;;
17784;SDS011;9016;53.582;10.062;2023-06-14T06:14:46;0.30;;;0.30;;
17784;SDS011;9016;53.582;10.062;2023-06-14T06:17:13;0.30;;;0.30;;
17784;SDS011;9016;53.582;10.062;2023-06-14T06:19:43;0.30;;;0.30;;
17784;SDS011;9016;53.582;10.062;2023-06-14T06:22:12;0.30;;;0.30;;
17784;SDS011;9016;53.582;10.062;2023-06-14T06:24:40;0.60;;;0.60;;
17784;SDS011;9016;53.582;10.062;2023-06-14T06:27:11;0.60;;;0.60;;
17784;SDS011;9016;53.582;10.062;2023-06-14T06:29:41;0.60;;;0.60;;
17784;SDS011;9016;53.582;10.062;2023-06-14T06:32:10;0.70;;;0.70;;
17784;SDS011;9016;53.582;10.062;2023-06-14T06:34:38;0.63;;;0.63;;
17784;SDS011;9016;53.582;10.062;2023-06-14T06:37:07;0.60;;;0.60;;
17784;SDS011;9016;53.582;10.062;2023-06-14T06:39:36;0.70;;;0.70;;
17784;SDS011;9016;53.582;10.062;2023-06-14T06:42:04;0.70;;;0.70;;
17784;SDS011;9016;53.582;10.062;2023-06-14T06:44:32;0.65;;;0.65;;
17784;SDS011;9016;53.582;10.062;2023-06-14T06:47:00;0.60;;;0.60;;
17784;SDS011;9016;53.582;10.062;2023-06-14T06:49:29;0.70;;;0.70;;
17784;SDS011;9016;53.582;10.062;2023-06-14T06:52:00;0.70;;;0.70;;
17784;SDS011;9016;53.582;10.062;2023-06-14T06:54:30;0.70;;;0.70;;
17784;SDS011;9016;53.582;10.062;2023-06-14T06:56:59;0.70;;;0.70;;
17784;SDS011;9016;53.582;10.062;2023-06-14T06:59:27;0.70;;;0.70;;
17784;SDS011;9016;53.582;10.062;2023-06-14T07:01:56;0.70;;;0.70;;
17784;SDS011;9016;53.582;10.062;2023-06-14T07:04:24;0.70;;;0.70;;
17784;SDS011;9016;53.582;10.062;2023-06-14T07:06:53;0.73;;;0.73;;
17784;SDS011;9016;53.582;10.062;2023-06-14T07:09:21;0.70;;;0.70;;
17784;SDS011;9016;53.582;10.062;2023-06-14T07:11:50;0.70;;;0.70;;
17784;SDS011;9016;53.582;10.062;2023-06-14T07:14:18;0.80;;;0.80;;
17784;SDS011;9016;53.582;10.062;2023-06-14T07:16:49;0.70;;;0.70;;
17784;SDS011;9016;53.582;10.062;2023-06-14T07:19:17;0.70;;;0.70;;
17784;SDS011;9016;53.582;10.062;2023-06-14T07:21:47;0.80;;;0.80;;
17784;SDS011;9016;53.582;10.062;2023-06-14T07:24:15;0.80;;;0.80;;
17784;SDS011;9016;53.582;10.062;2023-06-14T07:26:43;0.80;;;0.80;;
17784;SDS011;9016;53.582;10.062;2023-06-14T07:29:12;0.75;;;0.75;;
17784;SDS011;9016;53.582;10.062;2023-06-14T07:31:41;0.70;;;0.70;;
17784;SDS011;9016;53.582;10.062;2023-06-14T07:34:09;0.70;;;0.70;;
17784;SDS011;9016;53.582;10.062;2023-06-14T07:36:37;0.70;;;0.70;;
17784;SDS011;9016;53.582;10.062;2023-06-14T07:39:05;0.80;;;0.80;;
17784;SDS011;9016;53.582;10.062;2023-06-14T07:41:33;0.80;;;0.80;;
17784;SDS011;9016;53.582;10.062;2023-06-14T07:44:01;0.90;;;0.90;;
17784;SDS011;9016;53.582;10.062;2023-06-14T07:46:31;0.80;;;0.80;;
17784;SDS011;9016;53.582;10.062;2023-06-14T07:49:01;0.70;;;0.70;;
17784;SDS011;9016;53.582;10.062;2023-06-14T07:51:29;0.80;;;0.80;;
17784;SDS011;9016;53.582;10.062;2023-06-14T07:53:58;0.70;;;0.70;;
17784;SDS011;9016;53.582;10.062;2023-06-14T07:56:27;0.80;;;0.80;;
17784;SDS011;9016;53.582;10.062;2023-06-14T07:58:55;0.80;;;0.80;;
17784;SDS011;9016;53.582;10.062;2023-06-14T08:01:23;0.80;;;0.80;;
17784;SDS011;9016;53.582;10.062;2023-06-14T08:03:53;0.80;;;0.80;;
17784;SDS011;9016;53.582;10.062;2023-06-14T08:06:21;0.90;;;0.90;;
17784;SDS011;9016;53.582;10.062;2023-06-14T08:08:49;0.82;;;0.82;;
17784;SDS011;9016;53.582;10.062;2023-06-14T08:11:17;0.90;;;0.90;;
17784;SDS011;9016;53.582;10.062;2023-06-14T08:13:45;0.80;;;0.80;;
17784;SDS011;9016;53.582;10.062;2023-06-14T08:16:13;0.98;;;0.98;;
17784;SDS011;9016;53.582;10.062;2023-06-14T08:18:41;0.80;;;0.80;;
17784;SDS011;9016;53.582;10.062;2023-06-14T08:21:11;0.80;;;0.80;;
17784;SDS011;9016;53.582;10.062;2023-06-14T08:23:40;0.80;;;0.80;;
17784;SDS011;9016;53.582;10.062;2023-06-14T08:26:09;0.90;;;0.90;;
17784;SDS011;9016;53.582;10.062;2023-06-14T08:28:37;0.80;;;0.80;;
17784;SDS011;9016;53.582;10.062;2023-06-14T08:31:05;0.80;;;0.80;;
17784;SDS011;9016;53.582;10.062;2023-06-14T08:33:33;0.90;;;0.90;;
17784;SDS011;9016;53.582;10.062;2023-06-14T08:36:01;0.90;;;0.90;;
17784;SDS011;9016;53.582;10.062;2023-06-14T08:38:31;0.82;;;0.82;;
17784;SDS011;9016;53.582;10.062;2023-06-14T08:40:59;0.80;;;0.80;;
17784;SDS011;9016;53.582;10.062;2023-06-14T08:43:29;0.90;;;0.90;;
17784;SDS011;9016;53.582;10.062;2023-06-14T08:45:57;0.90;;;0.90;;
17784;SDS011;9016;53.582;10.062;2023-06-14T08:48:27;0.90;;;0.90;;
17784;SDS011;9016;53.582;10.062;2023-06-14T08:50:55;0.93;;;0.93;;
17784;SDS011;9016;53.582;10.062;2023-06-14T08:53:31;0.90;;;0.90;;
17784;SDS011;9016;53.582;10.062;2023-06-14T08:56:04;0.80;;;0.80;;
17784;SDS011;9016;53.582;10.062;2023-06-14T08:58:34;0.90;;;0.90;;
17784;SDS011;9016;53.582;10.062;2023-06-14T09:01:02;0.88;;;0.88;;
17784;SDS011;9016;53.582;10.062;2023-06-14T09:03:30;0.93;;;0.93;;
17784;SDS011;9016;53.582;10.062;2023-06-14T09:05:59;0.70;;;0.70;;
17784;SDS011;9016;53.582;10.062;2023-06-14T09:08:28;0.90;;;0.90;;
17784;SDS011;9016;53.582;10.062;2023-06-14T09:10:58;0.57;;;0.57;;
17784;SDS011;9016;53.582;10.062;2023-06-14T09:13:29;0.90;;;0.90;;
17784;SDS011;9016;53.582;10.062;2023-06-14T09:16:02;0.60;;;0.60;;
17784;SDS011;9016;53.582;10.062;2023-06-14T09:18:34;0.90;;;0.90;;
17784;SDS011;9016;53.582;10.062;2023-06-14T09:21:05;0.80;;;0.80;;
17784;SDS011;9016;53.582;10.062;2023-06-14T09:23:36;0.90;;;0.90;;
17784;SDS011;9016;53.582;10.062;2023-06-14T09:26:09;0.80;;;0.80;;
17784;SDS011;9016;53.582;10.062;2023-06-14T09:28:41;0.80;;;0.80;;
17784;SDS011;9016;53.582;10.062;2023-06-14T09:31:10;0.80;;;0.80;;
17784;SDS011;9016;53.582;10.062;2023-06-14T09:33:38;0.90;;;0.90;;
17784;SDS011;9016;53.582;10.062;2023-06-14T09:36:15;0.85;;;0.85;;
17784;SDS011;9016;53.582;10.062;2023-06-14T09:38:51;0.80;;;0.80;;
17784;SDS011;9016;53.582;10.062;2023-06-14T09:41:21;0.90;;;0.90;;
17784;SDS011;9016;53.582;10.062;2023-06-14T09:43:59;0.50;;;0.50;;
17784;SDS011;9016;53.582;10.062;2023-06-14T09:46:33;0.60;;;0.60;;
17784;SDS011;9016;53.582;10.062;2023-06-14T09:49:02;0.70;;;0.70;;
17784;SDS011;9016;53.582;10.062;2023-06-14T09:51:31;0.70;;;0.70;;
17784;SDS011;9016;53.582;10.062;2023-06-14T09:54:00;0.50;;;0.50;;
17784;SDS011;9016;53.582;10.062;2023-06-14T09:56:34;0.50;;;0.50;;
17784;SDS011;9016;53.582;10.062;2023-06-14T09:59:04;0.50;;;0.50;;
17784;SDS011;9016;53.582;10.062;2023-06-14T10:01:34;0.50;;;0.50;;
17784;SDS011;9016;53.582;10.062;2023-06-14T10:04:09;0.50;;;0.50;;
17784;SDS011;9016;53.582;10.062;2023-06-14T10:06:39;0.50;;;0.50;;
17784;SDS011;9016;53.582;10.062;2023-06-14T10:09:10;0.50;;;0.50;;
17784;SDS011;9016;53.582;10.062;2023-06-14T10:11:40;0.50;;;0.50;;
17784;SDS011;9016;53.582;10.062;2023-06-14T10:14:11;0.40;;;0.40;;
17784;SDS011;9016;53.582;10.062;2023-06-14T10:16:42;0.50;;;0.50;;
17784;SDS011;9016;53.582;10.062;2023-06-14T10:19:17;0.50;;;0.50;;
17784;SDS011;9016;53.582;10.062;2023-06-14T10:21:50;0.40;;;0.40;;
17784;SDS011;9016;53.582;10.062;2023-06-14T10:24:26;0.40;;;0.40;;
17784;SDS011;9016;53.582;10.062;2023-06-14T10:26:59;0.50;;;0.50;;
17784;SDS011;9016;53.582;10.062;2023-06-14T10:29:27;0.50;;;0.50;;
17784;SDS011;9016;53.582;10.062;2023-06-14T10:31:59;0.40;;;0.40;;
17784;SDS011;9016;53.582;10.062;2023-06-14T10:34:30;0.40;;;0.40;;
17784;SDS011;9016;53.582;10.062;2023-06-14T10:37:02;0.47;;;0.47;;
17784;SDS011;9016;53.582;10.062;2023-06-14T10:39:41;0.50;;;0.50;;
17784;SDS011;9016;53.582;10.062;2023-06-14T10:42:14;0.50;;;0.50;;
17784;SDS011;9016;53.582;10.062;2023-06-14T10:44:45;0.50;;;0.50;;
17784;SDS011;9016;53.582;10.062;2023-06-14T10:47:22;0.50;;;0.50;;
17784;SDS011;9016;53.582;10.062;2023-06-14T10:49:53;0.40;;;0.40;;
17784;SDS011;9016;53.582;10.062;2023-06-14T10:52:23;0.40;;;0.40;;
17784;SDS011;9016;53.582;10.062;2023-06-14T10:57:47;0.43;;;0.43;;
17784;SDS011;9016;53.582;10.062;2023-06-14T11:00:19;0.43;;;0.43;;
17784;SDS011;9016;53.582;10.062;2023-06-14T11:06:14;0.45;;;0.45;;
17784;SDS011;9016;53.582;10.062;2023-06-14T11:11:58;0.43;;;0.43;;
17784;SDS011;9016;53.582;10.062;2023-06-14T11:14:30;0.47;;;0.47;;
17784;SDS011;9016;53.582;10.062;2023-06-14T11:16:58;0.40;;;0.40;;
17784;SDS011;9016;53.582;10.062;2023-06-14T11:19:27;0.32;;;0.32;;
17784;SDS011;9016;53.582;10.062;2023-06-14T11:21:56;0.40;;;0.40;;
17784;SDS011;9016;53.582;10.062;2023-06-14T11:24:24;0.40;;;0.40;;
17784;SDS011;9016;53.582;10.062;2023-06-14T11:26:54;0.50;;;0.50;;
17784;SDS011;9016;53.582;10.062;2023-06-14T11:29:24;0.40;;;0.40;;
17784;SDS011;9016;53.582;10.062;2023-06-14T11:31:54;0.40;;;0.40;;
17784;SDS011;9016;53.582;10.062;2023-06-14T11:34:22;0.40;;;0.40;;
17784;SDS011;9016;53.582;10.062;2023-06-14T11:36:50;0.40;;;0.40;;
17784;SDS011;9016;53.582;10.062;2023-06-14T11:39:23;0.40;;;0.40;;
17784;SDS011;9016;53.582;10.062;2023-06-14T11:41:52;0.40;;;0.40;;
17784;SDS011;9016;53.582;10.062;2023-06-14T11:44:21;0.40;;;0.40;;
17784;SDS011;9016;53.582;10.062;2023-06-14T11:46:49;0.45;;;0.45;;
17784;SDS011;9016;53.582;10.062;2023-06-14T11:49:19;0.40;;;0.40;;
17784;SDS011;9016;53.582;10.062;2023-06-14T11:51:47;0.40;;;0.40;;
17784;SDS011;9016;53.582;10.062;2023-06-14T11:54:16;0.50;;;0.50;;
17784;SDS011;9016;53.582;10.062;2023-06-14T11:56:44;0.50;;;0.50;;
17784;SDS011;9016;53.582;10.062;2023-06-14T11:59:13;0.40;;;0.40;;
17784;SDS011;9016;53.582;10.062;2023-06-14T12:01:42;0.45;;;0.45;;
17784;SDS011;9016;53.582;10.062;2023-06-14T12:04:11;0.40;;;0.40;;
17784;SDS011;9016;53.582;10.062;2023-06-14T12:06:41;0.40;;;0.40;;
17784;SDS011;9016;53.582;10.062;2023-06-14T12:09:09;0.40;;;0.40;;
17784;SDS011;9016;53.582;10.062;2023-06-14T12:11:43;0.40;;;0.40;;
17784;SDS011;9016;53.582;10.062;2023-06-14T12:14:11;0.50;;;0.50;;
17784;SDS011;9016;53.582;10.062;2023-06-14T12:16:40;0.40;;;0.40;;
17784;SDS011;9016;53.582;10.062;2023-06-14T12:19:09;0.40;;;0.40;;
17784;SDS011;9016;53.582;10.062;2023-06-14T12:21:41;0.40;;;0.40;;
17784;SDS011;9016;53.582;10.062;2023-06-14T12:24:11;0.35;;;0.35;;
17784;SDS011;9016;53.582;10.062;2023-06-14T12:26:40;0.30;;;0.30;;
17784;SDS011;9016;53.582;10.062;2023-06-14T12:29:09;0.38;;;0.38;;
17784;SDS011;9016;53.582;10.062;2023-06-14T12:31:39;0.43;;;0.43;;
17784;SDS011;9016;53.582;10.062;2023-06-14T12:34:08;0.40;;;0.40;;
17784;SDS011;9016;53.582;10.062;2023-06-14T12:36:37;0.40;;;0.40;;
17784;SDS011;9016;53.582;10.062;2023-06-14T12:39:12;0.40;;;0.40;;
17784;SDS011;9016;53.582;10.062;2023-06-14T12:41:40;0.40;;;0.40;;
17784;SDS011;9016;53.582;10.062;2023-06-14T12:44:09;0.40;;;0.40;;
17784;SDS011;9016;53.582;10.062;2023-06-14T12:46:37;0.40;;;0.40;;
17784;SDS011;9016;53.582;10.062;2023-06-14T12:49:08;0.40;;;0.40;;
17784;SDS011;9016;53.582;10.062;2023-06-14T12:51:36;0.45;;;0.45;;
17784;SDS011;9016;53.582;10.062;2023-06-14T12:54:05;0.40;;;0.40;;
17784;SDS011;9016;53.582;10.062;2023-06-14T12:56:36;0.40;;;0.40;;
17784;SDS011;9016;53.582;10.062;2023-06-14T12:59:04;0.50;;;0.50;;
17784;SDS011;9016;53.582;10.062;2023-06-14T13:01:32;0.40;;;0.40;;
17784;SDS011;9016;53.582;10.062;2023-06-14T13:04:01;0.40;;;0.40;;
17784;SDS011;9016;53.582;10.062;2023-06-14T13:06:29;0.40;;;0.40;;
17784;SDS011;9016;53.582;10.062;2023-06-14T13:08:59;0.40;;;0.40;;
17784;SDS011;9016;53.582;10.062;2023-06-14T13:11:28;0.50;;;0.50;;
17784;SDS011;9016;53.582;10.062;2023-06-14T13:13:59;0.40;;;0.40;;
17784;SDS011;9016;53.582;10.062;2023-06-14T13:16:50;0.50;;;0.50;;
17784;SDS011;9016;53.582;10.062;2023-06-14T13:19:18;0.50;;;0.50;;
17784;SDS011;9016;53.582;10.062;2023-06-14T13:21:47;0.40;;;0.40;;
17784;SDS011;9016;53.582;10.062;2023-06-14T13:24:15;0.50;;;0.50;;
17784;SDS011;9016;53.582;10.062;2023-06-14T13:26:43;0.40;;;0.40;;
17784;SDS011;9016;53.582;10.062;2023-06-14T13:29:17;0.40;;;0.40;;
17784;SDS011;9016;53.582;10.062;2023-06-14T13:31:55;0.40;;;0.40;;
17784;SDS011;9016;53.582;10.062;2023-06-14T13:34:23;0.40;;;0.40;;
17784;SDS011;9016;53.582;10.062;2023-06-14T13:36:51;0.50;;;0.50;;
17784;SDS011;9016;53.582;10.062;2023-06-14T13:39:20;0.40;;;0.40;;
17784;SDS011;9016;53.582;10.062;2023-06-14T13:41:49;0.40;;;0.40;;
17784;SDS011;9016;53.582;10.062;2023-06-14T13:44:18;0.50;;;0.50;;
17784;SDS011;9016;53.582;10.062;2023-06-14T13:46:48;0.40;;;0.40;;
17784;SDS011;9016;53.582;10.062;2023-06-14T13:49:16;0.40;;;0.40;;
17784;SDS011;9016;53.582;10.062;2023-06-14T13:51:44;0.40;;;0.40;;
17784;SDS011;9016;53.582;10.062;2023-06-14T13:54:12;0.40;;;0.40;;
17784;SDS011;9016;53.582;10.062;2023-06-14T13:56:41;0.40;;;0.40;;
17784;SDS011;9016;53.582;10.062;2023-06-14T13:59:09;0.40;;;0.40;;
17784;SDS011;9016;53.582;10.062;2023-06-14T14:01:39;0.40;;;0.40;;
17784;SDS011;9016;53.582;10.062;2023-06-14T14:04:07;0.32;;;0.32;;
17784;SDS011;9016;53.582;10.062;2023-06-14T14:06:35;0.40;;;0.40;;
17784;SDS011;9016;53.582;10.062;2023-06-14T14:09:04;0.30;;;0.30;;
17784;SDS011;9016;53.582;10.062;2023-06-14T14:11:32;0.40;;;0.40;;
17784;SDS011;9016;53.582;10.062;2023-06-14T14:14:00;0.40;;;0.40;;
17784;SDS011;9016;53.582;10.062;2023-06-14T14:16:29;0.40;;;0.40;;
17784;SDS011;9016;53.582;10.062;2023-06-14T14:18:59;0.40;;;0.40;;
17784;SDS011;9016;53.582;10.062;2023-06-14T14:21:28;0.40;;;0.40;;
17784;SDS011;9016;53.582;10.062;2023-06-14T14:23:57;0.40;;;0.40;;
17784;SDS011;9016;53.582;10.062;2023-06-14T14:26:25;0.40;;;0.40;;
17784;SDS011;9016;53.582;10.062;2023-06-14T14:28:53;0.40;;;0.40;;
17784;SDS011;9016;53.582;10.062;2023-06-14T14:31:22;0.40;;;0.40;;
17784;SDS011;9016;53.582;10.062;2023-06-14T14:33:50;0.40;;;0.40;;
17784;SDS011;9016;53.582;10.062;2023-06-14T14:36:19;0.40;;;0.40;;
17784;SDS011;9016;53.582;10.062;2023-06-14T14:38:47;0.40;;;0.40;;
17784;SDS011;9016;53.582;10.062;2023-06-14T14:41:18;0.32;;;0.32;;
17784;SDS011;9016;53.582;10.062;2023-06-14T14:43:46;0.40;;;0.40;;
17784;SDS011;9016;53.582;10.062;2023-06-14T14:46:14;0.40;;;0.40;;
17784;SDS011;9016;53.582;10.062;2023-06-14T14:48:43;0.40;;;0.40;;
17784;SDS011;9016;53.582;10.062;2023-06-14T14:51:11;0.40;;;0.40;;
17784;SDS011;9016;53.582;10.062;2023-06-14T14:53:41;0.45;;;0.45;;
17784;SDS011;9016;53.582;10.062;2023-06-14T14:56:09;0.40;;;0.40;;
17784;SDS011;9016;53.582;10.062;2023-06-14T14:58:38;0.40;;;0.40;;
17784;SDS011;9016;53.582;10.062;2023-06-14T15:01:07;0.32;;;0.32;;
17784;SDS011;9016;53.582;10.062;2023-06-14T15:03:37;0.40;;;0.40;;
17784;SDS011;9016;53.582;10.062;2023-06-14T15:06:23;0.30;;;0.30;;
17784;SDS011;9016;53.582;10.062;2023-06-14T15:08:52;0.40;;;0.40;;
17784;SDS011;9016;53.582;10.062;2023-06-14T15:11:21;0.40;;;0.40;;